Time;durP1;ratioP1;P1;durP2;ratioP2;P2;SDS_P1;SDS_P2;PMS_P1;PMS_P2;Temp;Humidity;BMP_temperature;BMP_pressure;BME280_temperature;BME280_humidity;BME280_pressure;Samples;Min_cycle;Max_cycle;Signal;HPM_P1;HPM_P2
2021/11/30 00:00:01;;;;;;;14.37;11.30;;;5.00;95.70;;;;;;4994583;28;20555;-76
2021/11/30 00:02:29;;;;;;;22.47;12.17;;;4.80;95.70;;;;;;4994629;28;20444;-76
2021/11/30 00:04:57;;;;;;;15.03;11.90;;;4.80;95.80;;;;;;4994416;28;20965;-75
2021/11/30 00:07:24;;;;;;;16.53;11.03;;;4.80;96.10;;;;;;4994483;28;20497;-75
2021/11/30 00:12:37;;;;;;;17.73;12.17;;;4.80;95.80;;;;;;4994408;28;20460;-75
2021/11/30 00:15:05;;;;;;;20.40;12.17;;;4.80;95.80;;;;;;4994374;28;20478;-76
2021/11/30 00:17:32;;;;;;;15.30;11.17;;;4.80;95.60;;;;;;4993988;28;20938;-75
2021/11/30 00:20:03;;;;;;;15.33;10.90;;;4.90;95.60;;;;;;4994062;28;20552;-76
2021/11/30 00:22:29;;;;;;;17.50;12.17;;;4.80;95.30;;;;;;4994224;28;20454;-75
2021/11/30 00:24:56;;;;;;;19.40;12.60;;;4.80;95.30;;;;;;4994010;28;20484;-76
2021/11/30 00:27:25;;;;;;;17.70;11.10;;;4.80;95.40;;;;;;4994061;28;20452;-75
2021/11/30 00:29:52;;;;;;;16.87;11.80;;;4.80;95.60;;;;;;4994183;28;20479;-75
2021/11/30 00:32:19;;;;;;;15.60;10.87;;;4.80;95.50;;;;;;4993590;28;21016;-76
2021/11/30 00:34:45;;;;;;;19.60;12.13;;;4.70;95.40;;;;;;4994209;28;20833;-76
2021/11/30 00:37:14;;;;;;;18.13;11.30;;;4.80;95.50;;;;;;4993903;28;20458;-76
2021/11/30 00:39:40;;;;;;;20.70;12.03;;;4.80;95.40;;;;;;4994020;28;20472;-75
2021/11/30 00:42:08;;;;;;;21.37;10.90;;;4.70;95.40;;;;;;4993743;28;20969;-75
2021/11/30 00:44:37;;;;;;;22.90;11.70;;;4.80;95.30;;;;;;4994132;28;20448;-76
2021/11/30 00:47:04;;;;;;;24.10;11.77;;;4.70;95.20;;;;;;4993670;28;20451;-76
2021/11/30 00:49:31;;;;;;;21.57;12.60;;;4.80;95.20;;;;;;4993557;28;20970;-76
2021/11/30 00:52:00;;;;;;;18.33;11.50;;;4.80;95.10;;;;;;4993922;28;20468;-76
2021/11/30 00:54:31;;;;;;;18.07;12.93;;;4.80;95.00;;;;;;4993946;28;20455;-76
2021/11/30 00:56:59;;;;;;;19.60;10.67;;;4.80;95.00;;;;;;4993631;28;20539;-76
2021/11/30 00:59:28;;;;;;;20.07;11.77;;;4.80;94.70;;;;;;4993472;28;20456;-76
2021/11/30 01:01:55;;;;;;;15.90;10.57;;;4.80;94.50;;;;;;4993595;28;20568;-76
2021/11/30 01:04:22;;;;;;;19.10;8.53;;;4.80;94.30;;;;;;4993759;28;20547;-77
2021/11/30 01:06:48;;;;;;;17.30;10.47;;;4.80;94.00;;;;;;4993767;28;20448;-76
2021/11/30 01:09:15;;;;;;;13.97;8.93;;;4.80;94.10;;;;;;4993664;28;20481;-76
2021/11/30 01:11:44;;;;;;;20.97;9.50;;;4.80;93.60;;;;;;4993644;28;20468;-76
2021/11/30 01:14:11;;;;;;;17.80;8.87;;;4.90;93.50;;;;;;4993819;28;20519;-76
2021/11/30 01:16:38;;;;;;;19.40;8.90;;;4.90;93.30;;;;;;4993706;28;20527;-76
2021/11/30 01:19:05;;;;;;;22.70;9.30;;;4.90;93.40;;;;;;4993852;28;20471;-76
2021/11/30 01:21:33;;;;;;;14.10;8.73;;;4.90;92.80;;;;;;4995584;28;20474;-76
2021/11/30 01:24:01;;;;;;;13.73;8.30;;;4.80;92.70;;;;;;4997641;28;20450;-76
2021/11/30 01:26:28;;;;;;;15.30;9.27;;;4.80;92.60;;;;;;4997589;28;20883;-76
2021/11/30 01:28:56;;;;;;;23.27;9.40;;;4.90;92.70;;;;;;4997511;28;20440;-76
2021/11/30 01:31:23;;;;;;;20.33;8.37;;;4.90;92.30;;;;;;4997424;28;20474;-76
2021/11/30 01:33:50;;;;;;;19.10;8.37;;;4.90;92.40;;;;;;4997269;28;20483;-76
2021/11/30 01:36:18;;;;;;;13.63;7.90;;;4.90;92.40;;;;;;4997086;28;20891;-76
2021/11/30 01:38:45;;;;;;;13.47;7.30;;;4.90;92.40;;;;;;4997404;28;20452;-76
2021/11/30 01:41:13;;;;;;;18.40;8.27;;;4.90;92.20;;;;;;4997284;28;20474;-76
2021/11/30 01:43:42;;;;;;;14.77;7.50;;;4.90;92.30;;;;;;4997308;28;20487;-76
2021/11/30 01:46:15;;;;;;;15.13;7.00;;;4.90;92.10;;;;;;4997411;28;20530;-76
2021/11/30 01:51:27;;;;;;;14.17;6.50;;;4.90;92.00;;;;;;4997078;28;20447;-76
2021/11/30 01:53:56;;;;;;;18.90;7.30;;;5.00;92.10;;;;;;4997111;28;20484;-76
2021/11/30 01:56:22;;;;;;;15.37;6.30;;;5.00;92.10;;;;;;4997084;28;20474;-76
2021/11/30 01:58:50;;;;;;;10.87;5.90;;;5.00;91.80;;;;;;4996699;28;20455;-76
2021/11/30 02:01:19;;;;;;;8.43;6.10;;;5.10;91.90;;;;;;4996656;28;20991;-76
2021/11/30 02:03:46;;;;;;;20.20;6.73;;;5.10;92.10;;;;;;4996901;28;20448;-76
2021/11/30 02:06:13;;;;;;;9.77;5.20;;;5.00;92.00;;;;;;4996568;28;20452;-76
2021/11/30 02:08:40;;;;;;;11.70;5.43;;;5.00;92.10;;;;;;4996872;28;20458;-75
2021/11/30 02:11:07;;;;;;;9.23;5.20;;;5.00;92.40;;;;;;4996454;28;20490;-76
2021/11/30 02:13:34;;;;;;;14.27;5.03;;;5.10;92.60;;;;;;4996619;28;20830;-76
2021/11/30 02:16:02;;;;;;;7.60;4.70;;;5.10;92.70;;;;;;4996740;28;20448;-76
2021/11/30 02:18:31;;;;;;;12.60;5.57;;;5.10;92.50;;;;;;4996890;28;20456;-76
2021/11/30 02:21:04;;;;;;;11.00;5.40;;;5.10;92.60;;;;;;4996715;28;20472;-75
2021/11/30 02:23:36;;;;;;;8.40;4.60;;;5.10;92.70;;;;;;4996409;28;20429;-76
2021/11/30 02:26:07;;;;;;;10.23;5.37;;;5.00;93.00;;;;;;4996709;28;20443;-76
2021/11/30 02:28:34;;;;;;;11.43;4.90;;;5.10;93.10;;;;;;4996554;28;20499;-75
2021/11/30 02:31:01;;;;;;;9.63;4.80;;;5.10;93.10;;;;;;4996221;28;20513;-76
2021/11/30 02:33:28;;;;;;;9.77;4.73;;;5.00;93.30;;;;;;4995998;28;21031;-75
2021/11/30 02:35:55;;;;;;;5.20;4.13;;;5.10;93.70;;;;;;4996127;28;20538;-76
2021/11/30 02:38:23;;;;;;;6.77;4.30;;;5.10;94.00;;;;;;4996420;28;20452;-75
2021/11/30 02:40:50;;;;;;;7.43;4.47;;;5.00;94.40;;;;;;4996310;28;20468;-75
2021/11/30 02:43:16;;;;;;;9.40;4.00;;;4.90;94.70;;;;;;4996090;28;20451;-76
2021/11/30 02:45:43;;;;;;;10.60;4.10;;;4.90;95.00;;;;;;4996866;28;20432;-76
2021/11/30 02:48:11;;;;;;;5.50;3.40;;;4.80;95.60;;;;;;4995953;28;20964;-75
2021/11/30 02:50:41;;;;;;;6.60;4.47;;;4.80;95.80;;;;;;4995837;28;20998;-76
2021/11/30 02:53:15;;;;;;;9.27;3.90;;;4.70;96.10;;;;;;4996206;28;20472;-75
2021/11/30 02:55:45;;;;;;;6.57;4.43;;;4.70;96.70;;;;;;4996161;28;20495;-75
2021/11/30 02:58:12;;;;;;;6.93;4.40;;;4.70;96.80;;;;;;4995896;28;20965;-75
2021/11/30 03:00:39;;;;;;;9.80;5.00;;;4.60;97.10;;;;;;4995738;28;20474;-75
2021/11/30 03:03:06;;;;;;;9.00;4.83;;;4.60;97.50;;;;;;4995548;28;20910;-76
2021/11/30 03:05:33;;;;;;;5.30;4.60;;;4.60;97.70;;;;;;4995766;28;20449;-75
2021/11/30 03:08:00;;;;;;;9.70;4.40;;;4.60;97.80;;;;;;4995335;28;20950;-76
2021/11/30 03:10:27;;;;;;;8.33;4.50;;;4.60;98.10;;;;;;4995249;28;20496;-75
2021/11/30 03:12:56;;;;;;;8.70;5.10;;;4.60;98.30;;;;;;4995570;28;20825;-73
2021/11/30 03:15:25;;;;;;;6.27;4.90;;;4.60;98.40;;;;;;4995551;28;20456;-75
2021/11/30 03:17:53;;;;;;;10.43;4.70;;;4.50;98.40;;;;;;4995609;28;20456;-75
2021/11/30 03:20:20;;;;;;;10.73;5.53;;;4.50;98.70;;;;;;4995455;28;20468;-74
2021/11/30 03:22:47;;;;;;;7.70;4.83;;;4.40;98.70;;;;;;4995490;28;20452;-76
2021/11/30 03:25:15;;;;;;;7.67;4.83;;;4.50;99.10;;;;;;4995482;28;20459;-75
2021/11/30 03:27:42;;;;;;;8.20;6.40;;;4.40;99.20;;;;;;4995387;28;20456;-75
2021/11/30 03:30:11;;;;;;;9.23;5.93;;;4.40;99.30;;;;;;4995217;28;20476;-75
2021/11/30 03:35:24;;;;;;;10.23;5.90;;;4.50;99.80;;;;;;4995596;28;20865;-75
2021/11/30 03:37:51;;;;;;;12.83;5.70;;;4.50;99.90;;;;;;4994811;28;20450;-75
2021/11/30 03:40:18;;;;;;;8.20;6.10;;;4.50;99.90;;;;;;4994983;28;20475;-75
2021/11/30 03:42:46;;;;;;;7.70;5.40;;;4.50;99.90;;;;;;4994519;28;20507;-75
2021/11/30 03:45:14;;;;;;;8.13;5.93;;;4.50;99.90;;;;;;4994347;28;20450;-74
2021/11/30 03:47:42;;;;;;;10.17;6.17;;;4.60;99.90;;;;;;4994558;28;20543;-75
2021/11/30 03:50:09;;;;;;;7.57;6.30;;;4.60;99.90;;;;;;4994867;28;20477;-75
2021/11/30 03:52:37;;;;;;;7.13;5.83;;;4.60;99.90;;;;;;4995522;28;20451;-75
2021/11/30 03:55:06;;;;;;;12.40;6.30;;;4.70;99.90;;;;;;4994697;28;20807;-74
2021/11/30 03:57:32;;;;;;;13.50;6.40;;;4.60;99.90;;;;;;4994578;28;20947;-74
2021/11/30 04:00:04;;;;;;;7.63;5.50;;;4.60;99.90;;;;;;4994399;28;20985;-74
2021/11/30 04:02:32;;;;;;;8.50;5.80;;;4.60;99.90;;;;;;4994865;28;20535;-75
2021/11/30 04:04:59;;;;;;;8.90;6.00;;;4.70;99.90;;;;;;4995017;28;20452;-74
2021/11/30 04:07:26;;;;;;;6.30;5.57;;;4.70;99.90;;;;;;4994842;28;20458;-75
2021/11/30 04:09:53;;;;;;;9.43;5.87;;;4.70;99.90;;;;;;4994406;28;20488;-74
2021/11/30 04:12:21;;;;;;;6.27;5.03;;;4.60;99.90;;;;;;4994582;28;20516;-74
2021/11/30 04:14:47;;;;;;;8.23;6.30;;;4.60;99.90;;;;;;4994458;28;20487;-75
2021/11/30 04:17:14;;;;;;;7.27;5.40;;;4.70;99.90;;;;;;4994522;28;20825;-75
2021/11/30 04:19:44;;;;;;;7.03;5.20;;;4.70;99.90;;;;;;4994316;28;20565;-75
2021/11/30 04:22:11;;;;;;;7.40;5.90;;;4.80;99.90;;;;;;4993921;28;20507;-74
2021/11/30 04:24:40;;;;;;;7.93;6.13;;;4.80;99.90;;;;;;4994018;28;20968;-74
2021/11/30 04:27:07;;;;;;;7.17;6.10;;;4.70;99.90;;;;;;4994326;28;20476;-75
2021/11/30 04:29:36;;;;;;;7.40;5.10;;;4.80;99.90;;;;;;4994244;28;20464;-74
2021/11/30 04:32:03;;;;;;;8.10;6.20;;;4.80;99.90;;;;;;4994333;28;20453;-74
2021/11/30 04:34:30;;;;;;;7.17;6.43;;;4.90;99.90;;;;;;4994118;28;20480;-74
2021/11/30 04:36:58;;;;;;;6.37;5.70;;;4.90;99.90;;;;;;4994226;28;20459;-74
2021/11/30 04:39:25;;;;;;;9.33;6.00;;;5.00;99.90;;;;;;4994053;28;20451;-74
2021/11/30 04:41:52;;;;;;;6.77;5.70;;;5.00;99.90;;;;;;4994056;28;20452;-74
2021/11/30 04:44:19;;;;;;;7.27;5.97;;;5.00;99.90;;;;;;4994028;28;20448;-74
2021/11/30 04:46:51;;;;;;;8.33;5.60;;;5.00;99.90;;;;;;4993662;28;20455;-74
2021/11/30 04:49:28;;;;;;;6.47;5.57;;;5.10;99.90;;;;;;4994035;28;20436;-74
2021/11/30 04:51:55;;;;;;;6.10;5.50;;;5.10;99.90;;;;;;4994050;28;20436;-74
2021/11/30 04:54:23;;;;;;;7.90;6.00;;;5.20;99.90;;;;;;4993770;28;20583;-75
2021/11/30 04:56:50;;;;;;;7.90;6.47;;;5.20;99.90;;;;;;4993670;28;20507;-75
2021/11/30 04:59:19;;;;;;;7.70;7.00;;;5.20;99.90;;;;;;4993589;28;20938;-75
2021/11/30 05:01:46;;;;;;;8.27;7.47;;;5.30;99.90;;;;;;4993890;28;20448;-75
2021/11/30 05:04:14;;;;;;;9.60;6.53;;;5.30;99.90;;;;;;4993636;28;20905;-74
2021/11/30 05:06:41;;;;;;;7.07;6.37;;;5.40;99.90;;;;;;4993806;28;20450;-74
2021/11/30 05:09:08;;;;;;;6.53;5.93;;;5.40;99.90;;;;;;4993822;28;20643;-74
2021/11/30 05:11:37;;;;;;;8.00;7.27;;;5.40;99.90;;;;;;4993293;28;20486;-74
2021/11/30 05:14:05;;;;;;;6.80;6.20;;;5.40;99.90;;;;;;4993544;28;20893;-74
2021/11/30 05:16:32;;;;;;;8.00;7.00;;;5.40;99.90;;;;;;4993546;28;20459;-74
2021/11/30 05:18:59;;;;;;;8.10;7.03;;;5.50;99.90;;;;;;4993786;28;20452;-74
2021/11/30 05:21:27;;;;;;;7.60;6.90;;;5.50;99.90;;;;;;4994688;28;20522;-75
2021/11/30 05:23:59;;;;;;;7.73;6.70;;;5.50;99.90;;;;;;4993761;28;20446;-74
2021/11/30 05:26:25;;;;;;;11.60;6.93;;;5.50;99.90;;;;;;4994192;28;20463;-74
2021/11/30 05:28:53;;;;;;;8.77;7.50;;;5.50;99.90;;;;;;4993411;28;20448;-74
2021/11/30 05:31:20;;;;;;;7.87;7.17;;;5.60;99.90;;;;;;4993603;28;20472;-74
2021/11/30 05:33:48;;;;;;;8.00;7.20;;;5.60;99.90;;;;;;4993294;28;20535;-73
2021/11/30 05:36:18;;;;;;;9.30;8.00;;;5.60;99.90;;;;;;4993770;28;20453;-74
2021/11/30 05:38:44;;;;;;;8.70;7.80;;;5.70;99.90;;;;;;4993724;28;20445;-74
2021/11/30 05:41:11;;;;;;;9.20;8.30;;;5.70;99.90;;;;;;4993513;28;20470;-74
2021/11/30 05:43:38;;;;;;;8.63;7.70;;;5.70;99.90;;;;;;4993914;28;20440;-74
2021/11/30 05:46:07;;;;;;;10.33;8.07;;;5.80;99.90;;;;;;4994251;28;20449;-74
2021/11/30 05:48:34;;;;;;;8.90;7.57;;;5.80;99.90;;;;;;4993584;28;20787;-74
2021/11/30 05:51:02;;;;;;;10.07;8.20;;;5.80;99.90;;;;;;4993882;28;20480;-74
2021/11/30 05:53:28;;;;;;;8.30;7.50;;;5.80;99.90;;;;;;4993473;28;20433;-74
2021/11/30 05:55:58;;;;;;;9.20;8.30;;;5.90;99.90;;;;;;4993546;28;20806;-75
2021/11/30 05:58:25;;;;;;;9.27;8.37;;;5.90;99.90;;;;;;4993677;28;20444;-76
2021/11/30 06:00:52;;;;;;;7.90;6.97;;;6.00;99.90;;;;;;4993463;28;20507;-77
2021/11/30 06:03:28;;;;;;;8.93;8.03;;;5.90;99.90;;;;;;4993409;28;20864;-77
2021/11/30 06:05:55;;;;;;;10.37;8.77;;;6.00;99.90;;;;;;4993526;28;20800;-76
2021/11/30 06:08:22;;;;;;;8.70;7.90;;;6.00;99.90;;;;;;4996307;28;20451;-77
2021/11/30 06:10:49;;;;;;;8.80;7.67;;;6.00;99.90;;;;;;4996514;28;20498;-77
2021/11/30 06:13:16;;;;;;;8.17;7.00;;;6.00;99.90;;;;;;4996717;28;20458;-76
2021/11/30 06:15:43;;;;;;;10.47;8.23;;;6.10;99.90;;;;;;4996867;28;20468;-77
2021/11/30 06:18:10;;;;;;;9.50;8.50;;;6.10;99.90;;;;;;4997328;28;20464;-78
2021/11/30 06:20:38;;;;;;;10.03;7.80;;;6.10;99.90;;;;;;4997195;28;20478;-78
2021/11/30 06:23:05;;;;;;;9.17;8.30;;;6.10;99.90;;;;;;4997017;28;20444;-76
2021/11/30 06:25:32;;;;;;;9.53;8.63;;;6.20;99.90;;;;;;4997327;28;20475;-77
2021/11/30 06:27:59;;;;;;;10.80;9.70;;;6.10;99.90;;;;;;4996450;28;20448;-78
2021/11/30 06:30:25;;;;;;;11.57;9.10;;;6.10;99.90;;;;;;4996587;28;20545;-77
2021/11/30 06:32:52;;;;;;;12.10;9.70;;;6.20;99.90;;;;;;4996808;28;20850;-77
2021/11/30 06:35:19;;;;;;;11.70;10.50;;;6.20;99.90;;;;;;4996729;28;20492;-77
2021/11/30 06:37:47;;;;;;;13.60;10.77;;;6.30;99.90;;;;;;4997324;28;20462;-75
2021/11/30 06:40:14;;;;;;;12.53;11.23;;;6.30;99.90;;;;;;4996038;28;20840;-77
2021/11/30 06:42:41;;;;;;;12.33;10.90;;;6.30;99.90;;;;;;4996127;28;20462;-76
2021/11/30 06:45:09;;;;;;;13.20;11.80;;;6.30;99.90;;;;;;4995927;28;20456;-76
2021/11/30 06:47:36;;;;;;;12.47;10.97;;;6.40;99.90;;;;;;4996262;28;20459;-76
2021/11/30 06:50:03;;;;;;;13.27;11.70;;;6.40;99.90;;;;;;4996232;28;20472;-77
2021/11/30 06:52:30;;;;;;;15.40;12.37;;;6.40;99.90;;;;;;4995896;28;20921;-75
2021/11/30 06:54:58;;;;;;;17.60;11.97;;;6.40;99.90;;;;;;4996406;28;20488;-73
2021/11/30 06:57:25;;;;;;;14.07;12.67;;;6.40;99.90;;;;;;4995739;28;20448;-74
2021/11/30 06:59:52;;;;;;;16.23;13.10;;;6.50;99.90;;;;;;4995966;28;20478;-73
2021/11/30 07:02:21;;;;;;;15.60;11.70;;;6.50;99.90;;;;;;4995929;28;20476;-74
2021/11/30 07:04:48;;;;;;;13.27;11.97;;;6.50;99.90;;;;;;4995670;28;20440;-74
2021/11/30 07:07:25;;;;;;;13.97;11.40;;;6.60;99.90;;;;;;4995924;28;20456;-74
2021/11/30 07:10:09;;;;;;;12.13;10.67;;;6.60;99.90;;;;;;4995580;28;20468;-74
2021/11/30 07:13:02;;;;;;;13.30;11.90;;;6.60;99.90;;;;;;4995807;28;20432;-73
2021/11/30 07:15:29;;;;;;;12.47;10.20;;;6.70;99.90;;;;;;4995610;28;20484;-74
2021/11/30 07:17:58;;;;;;;13.77;11.97;;;6.60;99.90;;;;;;4995484;28;20448;-74
2021/11/30 07:20:26;;;;;;;12.30;11.10;;;6.60;99.90;;;;;;4996020;28;20476;-75
2021/11/30 07:22:56;;;;;;;11.23;10.07;;;6.70;99.90;;;;;;4995858;28;20428;-75
2021/11/30 07:25:23;;;;;;;13.40;11.70;;;6.70;99.90;;;;;;4996438;28;20436;-73
2021/11/30 07:27:51;;;;;;;12.57;11.27;;;6.70;99.90;;;;;;4995857;28;20463;-72
2021/11/30 07:30:18;;;;;;;12.90;11.60;;;6.70;99.90;;;;;;4995357;28;20472;-72
2021/11/30 07:32:45;;;;;;;13.13;11.60;;;6.70;99.90;;;;;;4995406;28;20448;-72
2021/11/30 07:35:12;;;;;;;16.13;13.27;;;6.70;99.90;;;;;;4995227;28;21085;-73
2021/11/30 07:37:39;;;;;;;12.63;11.43;;;6.80;99.90;;;;;;4995420;28;20436;-73
2021/11/30 07:40:07;;;;;;;15.77;13.10;;;6.80;99.90;;;;;;4995418;28;20468;-74
2021/11/30 07:42:33;;;;;;;13.80;12.37;;;6.80;99.90;;;;;;4995461;28;20448;-74
2021/11/30 07:45:02;;;;;;;15.33;12.27;;;6.90;99.90;;;;;;4995659;28;20444;-74
2021/11/30 07:47:28;;;;;;;14.03;12.30;;;6.90;99.90;;;;;;4994876;28;20981;-73
2021/11/30 07:49:55;;;;;;;14.90;12.50;;;6.80;99.90;;;;;;4994703;28;20840;-73
2021/11/30 07:52:22;;;;;;;12.70;11.43;;;6.90;99.90;;;;;;4994969;28;20448;-73
2021/11/30 07:54:51;;;;;;;12.80;11.50;;;6.90;99.90;;;;;;4994969;28;20484;-73
2021/11/30 07:57:17;;;;;;;13.87;12.10;;;6.90;99.90;;;;;;4995093;28;20447;-75
2021/11/30 07:59:44;;;;;;;13.13;11.70;;;6.90;99.90;;;;;;4994982;28;20464;-74
2021/11/30 08:02:12;;;;;;;12.60;11.30;;;7.00;99.90;;;;;;4994984;28;20876;-74
2021/11/30 08:04:39;;;;;;;11.90;10.40;;;6.90;99.90;;;;;;4994968;28;20863;-73
2021/11/30 08:07:06;;;;;;;12.37;11.07;;;7.00;99.90;;;;;;4994870;28;20539;-74
2021/11/30 08:09:35;;;;;;;13.80;11.23;;;7.00;99.90;;;;;;4994595;28;20455;-74
2021/11/30 08:12:02;;;;;;;11.33;10.07;;;7.00;99.90;;;;;;4994678;28;20937;-74
2021/11/30 08:14:29;;;;;;;12.80;11.50;;;7.10;99.90;;;;;;4994848;28;20484;-73
2021/11/30 08:16:55;;;;;;;11.77;10.57;;;7.10;99.90;;;;;;4994365;28;20531;-72
2021/11/30 08:19:24;;;;;;;11.97;10.63;;;7.10;99.90;;;;;;4995241;28;20448;-73
2021/11/30 08:21:51;;;;;;;12.10;9.93;;;7.20;99.90;;;;;;4994581;28;20522;-75
2021/11/30 08:24:18;;;;;;;11.13;10.00;;;7.20;99.90;;;;;;4994233;28;20985;-73
2021/11/30 08:26:45;;;;;;;12.90;10.30;;;7.20;99.90;;;;;;4994389;28;20453;-75
2021/11/30 08:29:12;;;;;;;13.13;11.13;;;7.20;99.90;;;;;;4994129;28;20444;-72
2021/11/30 08:31:38;;;;;;;12.53;11.33;;;7.20;99.90;;;;;;4994201;28;20448;-75
2021/11/30 08:34:05;;;;;;;11.53;10.33;;;7.20;99.90;;;;;;4994073;28;20870;-73
2021/11/30 08:36:33;;;;;;;13.90;12.47;;;7.30;99.90;;;;;;4993927;28;20976;-74
2021/11/30 08:39:00;;;;;;;10.87;9.73;;;7.30;99.90;;;;;;4994253;28;20456;-73
2021/11/30 08:41:27;;;;;;;11.50;10.30;;;7.40;99.90;;;;;;4993938;28;20530;-73
2021/11/30 08:43:54;;;;;;;11.60;10.50;;;7.40;99.90;;;;;;4993871;28;20452;-73
2021/11/30 08:46:21;;;;;;;11.23;10.03;;;7.40;99.90;;;;;;4993838;28;20812;-72
2021/11/30 08:48:48;;;;;;;12.60;11.30;;;7.40;99.90;;;;;;4994189;28;20884;-74
2021/11/30 08:51:15;;;;;;;11.83;10.40;;;7.40;99.90;;;;;;4993674;28;20482;-73
2021/11/30 08:53:43;;;;;;;12.40;11.00;;;7.50;99.90;;;;;;4993765;28;20458;-72
2021/11/30 08:56:11;;;;;;;11.53;10.07;;;7.50;99.90;;;;;;4994047;28;20472;-73
2021/11/30 08:58:38;;;;;;;12.17;10.97;;;7.50;99.90;;;;;;4993804;28;20931;-73
2021/11/30 09:01:05;;;;;;;12.90;11.60;;;7.60;99.90;;;;;;4993831;28;20556;-74
2021/11/30 09:03:32;;;;;;;12.73;9.47;;;7.60;99.90;;;;;;4993939;28;20456;-73
2021/11/30 09:05:59;;;;;;;14.33;12.87;;;7.70;99.90;;;;;;4993655;28;20448;-73
2021/11/30 09:08:26;;;;;;;14.20;11.80;;;7.70;99.90;;;;;;4994017;28;20511;-75
2021/11/30 09:10:55;;;;;;;13.53;11.73;;;7.80;99.90;;;;;;4993332;28;20487;-73
2021/11/30 09:13:21;;;;;;;13.23;11.83;;;7.70;99.90;;;;;;4993893;28;20452;-73
2021/11/30 09:15:48;;;;;;;12.70;11.50;;;7.80;99.90;;;;;;4993440;28;20819;-74
2021/11/30 09:18:15;;;;;;;13.63;12.23;;;7.80;99.90;;;;;;4993493;28;20456;-73
2021/11/30 09:20:42;;;;;;;14.10;12.10;;;7.80;99.90;;;;;;4993421;28;20486;-75
2021/11/30 09:23:10;;;;;;;12.40;11.20;;;7.90;99.90;;;;;;4993478;28;20957;-74
2021/11/30 09:25:37;;;;;;;12.10;11.00;;;7.90;99.90;;;;;;4993717;28;20452;-74
2021/11/30 09:28:06;;;;;;;13.30;11.90;;;7.90;99.90;;;;;;4993759;28;20432;-74
2021/11/30 09:30:35;;;;;;;12.40;11.10;;;8.00;99.90;;;;;;4993621;28;20484;-75
2021/11/30 09:33:02;;;;;;;11.50;10.40;;;8.00;99.90;;;;;;4993925;28;20448;-74
2021/11/30 09:35:29;;;;;;;12.40;11.13;;;8.00;99.90;;;;;;4993524;28;20488;-74
2021/11/30 09:37:58;;;;;;;12.90;11.33;;;8.00;99.90;;;;;;4993653;28;20881;-73
2021/11/30 09:40:28;;;;;;;10.70;9.70;;;8.00;99.90;;;;;;4993560;28;20464;-73
2021/11/30 09:42:55;;;;;;;11.40;10.30;;;8.10;99.90;;;;;;4996518;28;20427;-74
2021/11/30 09:45:26;;;;;;;12.90;11.60;;;8.10;99.90;;;;;;4997323;28;20823;-73
2021/11/30 09:47:54;;;;;;;11.17;10.17;;;8.10;99.90;;;;;;4997478;28;20440;-73
2021/11/30 09:50:23;;;;;;;11.40;10.23;;;8.20;99.90;;;;;;4997151;28;20837;-73
2021/11/30 09:52:53;;;;;;;11.13;10.13;;;8.30;99.90;;;;;;4997156;28;20452;-73
2021/11/30 09:55:22;;;;;;;10.77;9.77;;;8.30;99.90;;;;;;4997156;28;20483;-75
2021/11/30 09:57:49;;;;;;;9.87;8.93;;;8.30;99.90;;;;;;4997436;28;20452;-76
2021/11/30 10:00:16;;;;;;;9.90;8.80;;;8.30;99.90;;;;;;4996986;28;20997;-76
2021/11/30 10:02:45;;;;;;;11.07;9.80;;;8.30;99.90;;;;;;4997107;28;20539;-76
2021/11/30 10:05:11;;;;;;;10.37;9.37;;;8.40;99.90;;;;;;4996714;28;20937;-76
2021/11/30 10:07:40;;;;;;;9.87;8.87;;;8.40;99.90;;;;;;4997567;28;20765;-76
2021/11/30 10:10:16;;;;;;;10.20;9.20;;;8.40;99.90;;;;;;4996658;28;20495;-76
2021/11/30 10:12:43;;;;;;;9.80;8.80;;;8.40;99.90;;;;;;4996853;28;20917;-77
2021/11/30 10:15:12;;;;;;;9.87;8.90;;;8.40;99.90;;;;;;4997088;28;20480;-76
2021/11/30 10:17:39;;;;;;;9.50;8.70;;;8.50;99.90;;;;;;4996756;28;20444;-75
2021/11/30 10:20:11;;;;;;;8.50;7.70;;;8.50;99.90;;;;;;4996957;28;20886;-76
2021/11/30 10:22:41;;;;;;;10.53;8.30;;;8.50;99.90;;;;;;4996692;28;20441;-75
2021/11/30 10:25:10;;;;;;;9.60;8.00;;;8.50;99.90;;;;;;4996384;28;20903;-77
2021/11/30 10:27:41;;;;;;;9.33;7.73;;;8.60;99.90;;;;;;4996845;28;20480;-76
2021/11/30 10:30:14;;;;;;;7.80;7.10;;;8.60;99.90;;;;;;4996500;28;20474;-76
2021/11/30 10:32:45;;;;;;;8.37;7.60;;;8.60;99.90;;;;;;4996585;28;20478;-75
2021/11/30 10:35:15;;;;;;;8.77;7.93;;;8.60;99.90;;;;;;4996805;28;20473;-76
2021/11/30 10:37:43;;;;;;;8.50;7.70;;;8.70;99.90;;;;;;4996418;28;20460;-76
2021/11/30 10:40:13;;;;;;;8.90;8.10;;;8.70;99.90;;;;;;4996106;28;21008;-76
2021/11/30 10:42:51;;;;;;;8.40;7.60;;;8.70;99.90;;;;;;4996670;28;20440;-76
2021/11/30 10:45:27;;;;;;;7.23;6.53;;;8.80;99.90;;;;;;4996090;28;20467;-76
2021/11/30 10:48:00;;;;;;;6.90;6.30;;;8.80;99.90;;;;;;4996335;28;20527;-76
2021/11/30 10:50:32;;;;;;;8.87;7.00;;;8.80;99.90;;;;;;4996114;28;20468;-75
2021/11/30 10:53:00;;;;;;;7.20;6.53;;;8.80;99.90;;;;;;4996952;28;20451;-75
2021/11/30 10:55:28;;;;;;;7.80;7.00;;;8.80;99.90;;;;;;4998425;28;20494;-78
2021/11/30 10:57:55;;;;;;;6.63;6.03;;;8.80;99.90;;;;;;4999982;28;20432;-78
2021/11/30 11:00:26;;;;;;;8.87;6.97;;;8.80;99.90;;;;;;5000229;28;20464;-78
2021/11/30 11:03:00;;;;;;;7.17;6.53;;;8.80;99.90;;;;;;5001780;28;20448;-78
2021/11/30 11:05:29;;;;;;;7.00;6.40;;;8.80;99.90;;;;;;5009269;28;20428;-78
2021/11/30 11:08:06;;;;;;;6.93;6.33;;;8.80;99.90;;;;;;5008482;28;20452;-78
2021/11/30 11:10:34;;;;;;;6.80;6.20;;;8.90;99.90;;;;;;5000419;28;20486;-78
2021/11/30 11:13:26;;;;;;;6.40;5.80;;;8.90;99.90;;;;;;4999567;28;20447;-78
2021/11/30 11:15:55;;;;;;;6.00;5.20;;;9.00;99.90;;;;;;4999489;28;20476;-77
2021/11/30 11:18:28;;;;;;;5.80;5.30;;;8.90;99.90;;;;;;5000426;28;20471;-78
2021/11/30 11:21:12;;;;;;;5.90;5.37;;;9.00;99.90;;;;;;5002155;28;20468;-78
2021/11/30 11:23:42;;;;;;;5.90;5.40;;;9.00;99.90;;;;;;4997071;28;20442;-78
2021/11/30 11:26:20;;;;;;;6.10;5.50;;;9.00;99.90;;;;;;4997485;28;20433;-77
2021/11/30 11:28:48;;;;;;;6.73;5.47;;;9.00;99.90;;;;;;4997170;28;20444;-77
2021/11/30 11:31:15;;;;;;;6.13;5.63;;;9.00;99.90;;;;;;4997206;28;20833;-78
2021/11/30 11:33:42;;;;;;;7.63;6.50;;;9.10;99.90;;;;;;4998052;28;20987;-78
2021/11/30 11:36:11;;;;;;;6.97;6.27;;;9.10;99.90;;;;;;4998520;28;20484;-78
2021/11/30 11:38:39;;;;;;;6.50;5.90;;;9.10;99.90;;;;;;4997467;28;20428;-78
2021/11/30 11:41:06;;;;;;;8.90;7.37;;;9.10;99.90;;;;;;4996545;28;20832;-78
2021/11/30 11:43:34;;;;;;;7.63;6.93;;;9.10;99.90;;;;;;4996804;28;20496;-74
2021/11/30 11:46:01;;;;;;;9.07;7.97;;;9.10;99.90;;;;;;4995035;28;20535;-75
2021/11/30 11:48:30;;;;;;;8.67;7.57;;;9.10;99.90;;;;;;4995123;28;20468;-76
2021/11/30 11:50:58;;;;;;;9.33;7.97;;;9.10;99.90;;;;;;4995047;28;20478;-76
2021/11/30 11:53:29;;;;;;;9.50;8.60;;;9.10;99.90;;;;;;4994978;28;20459;-75
2021/11/30 11:56:24;;;;;;;10.53;9.03;;;9.10;99.90;;;;;;4994998;28;20468;-75
2021/11/30 11:59:08;;;;;;;9.77;8.67;;;9.20;99.90;;;;;;4960616;28;20460;-76
2021/11/30 12:01:37;;;;;;;9.77;8.87;;;9.20;99.90;;;;;;4995793;28;20472;-78
2021/11/30 12:04:05;;;;;;;10.23;9.17;;;9.20;99.90;;;;;;4994453;28;20443;-76
2021/11/30 12:06:34;;;;;;;10.80;9.70;;;9.20;99.90;;;;;;4994386;28;20543;-77
2021/11/30 12:09:16;;;;;;;11.20;9.40;;;9.30;99.90;;;;;;4994777;28;20448;-75
2021/11/30 12:11:45;;;;;;;10.37;9.37;;;9.30;99.90;;;;;;4994247;28;20474;-75
2021/11/30 12:14:15;;;;;;;11.50;10.33;;;9.30;99.90;;;;;;4994861;28;20460;-75
2021/11/30 12:17:22;;;;;;;11.43;10.30;;;9.30;99.90;;;;;;4994549;28;20476;-75
2021/11/30 12:19:51;;;;;;;10.17;9.17;;;9.30;99.90;;;;;;4994614;28;20503;-75
2021/11/30 12:22:43;;;;;;;10.60;9.50;;;9.30;99.90;;;;;;4994571;28;20452;-75
2021/11/30 12:25:23;;;;;;;10.67;9.57;;;9.30;99.90;;;;;;4994471;28;20814;-72
2021/11/30 12:27:51;;;;;;;10.80;9.70;;;9.30;99.90;;;;;;4994160;28;20907;-73
2021/11/30 12:30:37;;;;;;;12.13;10.17;;;9.30;99.90;;;;;;4994292;28;20468;-75
2021/11/30 12:33:06;;;;;;;11.93;10.50;;;9.30;99.90;;;;;;4994318;28;20843;-75
2021/11/30 12:35:44;;;;;;;14.23;11.60;;;9.30;99.90;;;;;;4994121;28;20507;-73
2021/11/30 12:38:17;;;;;;;12.83;10.67;;;9.30;99.90;;;;;;4993907;28;20789;-73
2021/11/30 12:40:48;;;;;;;12.70;10.93;;;9.30;99.90;;;;;;4993938;28;20988;-72
2021/11/30 12:43:19;;;;;;;14.50;11.43;;;9.30;99.90;;;;;;4993848;28;20835;-73
2021/11/30 12:45:48;;;;;;;12.50;11.20;;;9.40;99.90;;;;;;4994044;28;20440;-72
2021/11/30 12:48:17;;;;;;;12.57;11.00;;;9.40;99.90;;;;;;4994082;28;20437;-71
2021/11/30 12:50:44;;;;;;;11.40;10.30;;;9.40;99.90;;;;;;4994058;28;20506;-72
2021/11/30 12:53:11;;;;;;;11.07;9.97;;;9.40;99.90;;;;;;4994028;28;20525;-71
2021/11/30 12:55:49;;;;;;;12.27;10.93;;;9.40;99.90;;;;;;4993932;28;20448;-72
2021/11/30 12:58:41;;;;;;;12.17;10.87;;;9.40;99.90;;;;;;4993974;28;20938;-73
2021/11/30 13:01:16;;;;;;;14.43;11.30;;;9.40;99.90;;;;;;4993963;28;20967;-74
2021/11/30 13:03:44;;;;;;;11.97;10.20;;;9.40;99.90;;;;;;4994060;28;20474;-75